Time;durP1;ratioP1;P1;durP2;ratioP2;P2;SDS_P1;SDS_P2;PMS_P1;PMS_P2;Temp;Humidity;BMP_temperature;BMP_pressure;BME280_temperature;BME280_humidity;BME280_pressure;Samples;Min_cycle;Max_cycle;Signal;HPM_P1;HPM_P2
2022/07/05 07:01:48;;;;;;;3.75;1.50;;;;;;;;;;13068902;22;3509289;-81
2022/07/05 07:06:52;;;;;;;2.30;1.20;;;;;;;;;;13056128;22;20072;-83
2022/07/05 07:11:56;;;;;;;2.67;1.20;;;;;;;;;;13041205;22;19995;-83
2022/07/05 07:16:57;;;;;;;1.63;1.00;;;;;;;;;;13040294;22;20432;-81
2022/07/05 07:22:00;;;;;;;2.40;1.30;;;;;;;;;;13015759;22;20030;-81
2022/07/05 07:27:04;;;;;;;3.65;1.40;;;;;;;;;;13046748;22;20054;-81
2022/07/05 07:32:08;;;;;;;2.10;1.50;;;;;;;;;;13088940;22;20007;-82
2022/07/05 07:37:13;;;;;;;2.47;1.92;;;;;;;;;;13044479;22;20007;-82
2022/07/05 07:42:15;;;;;;;3.20;1.90;;;;;;;;;;13041408;22;20003;-82
2022/07/05 07:47:16;;;;;;;3.92;1.90;;;;;;;;;;13019730;22;20007;-81
2022/07/05 07:52:19;;;;;;;2.08;1.40;;;;;;;;;;13043415;22;20079;-81
2022/07/05 07:57:20;;;;;;;2.53;1.45;;;;;;;;;;13040404;22;20019;-81
2022/07/05 08:02:22;;;;;;;2.97;1.85;;;;;;;;;;13044868;22;20029;-82
2022/07/05 08:07:23;;;;;;;2.28;1.60;;;;;;;;;;13039078;22;20007;-80
2022/07/05 08:13:03;;;;;;;4.45;2.10;;;;;;;;;;13042595;22;20427;-82
2022/07/05 08:29:44;;;;;;;5.82;2.08;;;;;;;;;;13077656;22;20007;-82
2022/07/05 08:34:48;;;;;;;3.53;1.85;;;;;;;;;;13056688;22;19999;-82
2022/07/05 08:39:49;;;;;;;6.13;5.18;;;;;;;;;;13056479;22;20053;-83
2022/07/05 08:44:51;;;;;;;3.47;2.78;;;;;;;;;;13055179;22;20007;-82
2022/07/05 08:49:53;;;;;;;2.47;1.80;;;;;;;;;;13048668;22;20009;-81
2022/07/05 08:54:57;;;;;;;3.53;2.05;;;;;;;;;;13068215;22;19995;-83
2022/07/05 08:59:59;;;;;;;3.80;1.83;;;;;;;;;;13045345;22;20367;-82
2022/07/05 09:05:00;;;;;;;4.35;1.83;;;;;;;;;;13042309;22;20007;-82
2022/07/05 09:10:03;;;;;;;3.60;1.80;;;;;;;;;;13077745;22;20007;-82
2022/07/05 09:15:05;;;;;;;4.97;1.60;;;;;;;;;;13045609;22;20003;-80
2022/07/05 09:20:12;;;;;;;4.35;1.70;;;;;;;;;;13040620;22;20070;-79
2022/07/05 09:25:13;;;;;;;4.97;2.05;;;;;;;;;;13044939;22;20331;-81
2022/07/05 09:30:28;;;;;;;4.00;1.60;;;;;;;;;;13058615;22;20073;-79
2022/07/05 09:35:33;;;;;;;4.80;1.90;;;;;;;;;;13042883;22;20082;-80
2022/07/05 09:40:46;;;;;;;2.88;1.40;;;;;;;;;;13036805;22;20003;-81
2022/07/05 09:45:56;;;;;;;2.15;1.40;;;;;;;;;;13062534;22;20053;-80
2022/07/05 09:51:13;;;;;;;1.60;1.17;;;;;;;;;;13072246;22;20011;-81
2022/07/05 09:56:14;;;;;;;2.67;1.60;;;;;;;;;;13045333;22;20328;-81
2022/07/05 10:01:28;;;;;;;2.25;1.60;;;;;;;;;;13047752;22;20055;-82
2022/07/05 10:06:32;;;;;;;3.15;1.83;;;;;;;;;;13046559;22;20012;-82
2022/07/05 10:11:34;;;;;;;3.28;1.60;;;;;;;;;;13047596;22;20055;-82
2022/07/05 10:16:36;;;;;;;2.45;1.50;;;;;;;;;;13061195;22;20014;-81
2022/07/05 10:21:44;;;;;;;1.52;1.17;;;;;;;;;;13047996;22;20011;-82
2022/07/05 10:26:59;;;;;;;1.85;1.30;;;;;;;;;;13046101;22;20004;-85
2022/07/05 10:32:56;;;;;;;1.95;1.38;;;;;;;;;;12942389;22;20445;-82
2022/07/05 10:37:38;;;;;;;3.58;3.00;;;;;;;;;;12927592;22;20011;-83
2022/07/05 10:42:44;;;;;;;2.50;1.45;;;;;;;;;;12998954;22;20003;-82
2022/07/05 10:48:08;;;;;;;2.58;1.30;;;;;;;;;;13009586;22;20015;-82
2022/07/05 10:53:10;;;;;;;3.58;2.00;;;;;;;;;;12996294;22;20012;-82
2022/07/05 10:58:17;;;;;;;2.45;1.52;;;;;;;;;;13012489;22;20011;-82
2022/07/05 11:03:35;;;;;;;4.60;4.10;;;;;;;;;;13011195;22;20075;-81
2022/07/05 11:08:55;;;;;;;3.17;1.63;;;;;;;;;;13013152;22;20436;-81
2022/07/05 11:14:03;;;;;;;4.38;2.78;;;;;;;;;;13012001;22;20038;-80
2022/07/05 11:19:09;;;;;;;5.47;2.58;;;;;;;;;;13011836;22;20007;-82
2022/07/05 11:24:22;;;;;;;5.60;1.88;;;;;;;;;;13013025;22;20004;-82
2022/07/05 11:29:45;;;;;;;2.85;1.73;;;;;;;;;;13027209;22;20022;-81
2022/07/05 11:34:47;;;;;;;2.55;1.95;;;;;;;;;;12993687;22;20022;-81
2022/07/05 11:40:11;;;;;;;2.35;1.65;;;;;;;;;;12992344;22;20055;-81
2022/07/05 11:45:13;;;;;;;3.13;1.70;;;;;;;;;;13011694;22;20018;-80
2022/07/05 11:50:14;;;;;;;3.20;1.70;;;;;;;;;;13010748;22;20039;-80
2022/07/05 11:55:16;;;;;;;3.33;1.60;;;;;;;;;;12994815;22;20011;-81
2022/07/05 12:00:27;;;;;;;4.05;1.90;;;;;;;;;;12978800;22;20015;-81
2022/07/05 12:05:32;;;;;;;3.15;1.60;;;;;;;;;;12978018;22;20014;-81
2022/07/05 12:16:00;;;;;;;3.05;2.53;;;;;;;;;;13007316;22;20007;-80
2022/07/05 12:21:01;;;;;;;3.47;1.77;;;;;;;;;;13011514;22;20026;-81
2022/07/05 12:26:02;;;;;;;2.53;1.77;;;;;;;;;;12978593;22;20090;-81
2022/07/05 12:31:19;;;;;;;2.63;1.70;;;;;;;;;;12977330;22;20014;-83
2022/07/05 12:36:27;;;;;;;4.18;2.00;;;;;;;;;;12981997;22;19996;-82
2022/07/05 12:41:28;;;;;;;2.95;2.30;;;;;;;;;;13001358;22;19999;-82
2022/07/05 12:46:43;;;;;;;2.50;1.77;;;;;;;;;;12975654;22;20046;-82
2022/07/05 12:51:45;;;;;;;3.30;1.70;;;;;;;;;;12973790;22;19996;-81
2022/07/05 13:02:35;;;;;;;4.43;2.00;;;;;;;;;;13005555;22;20011;-82
2022/07/05 13:07:52;;;;;;;4.07;2.38;;;;;;;;;;12970483;22;20016;-82
2022/07/05 13:12:53;;;;;;;5.88;1.50;;;;;;;;;;12976776;22;20344;-82
2022/07/05 13:17:54;;;;;;;3.63;1.80;;;;;;;;;;12977503;22;20012;-82
2022/07/05 13:22:55;;;;;;;2.35;1.73;;;;;;;;;;12982377;22;20050;-81
2022/07/05 13:27:57;;;;;;;2.75;1.70;;;;;;;;;;12991585;22;20090;-81
2022/07/05 13:33:05;;;;;;;3.38;1.75;;;;;;;;;;12994865;22;20034;-82
2022/07/05 13:38:06;;;;;;;2.67;2.00;;;;;;;;;;13008777;22;20077;-81
2022/07/05 13:43:07;;;;;;;2.28;1.48;;;;;;;;;;13002152;22;20015;-81
2022/07/05 13:48:08;;;;;;;2.63;1.90;;;;;;;;;;13001968;22;20075;-82
2022/07/05 13:53:09;;;;;;;4.53;1.60;;;;;;;;;;13004222;22;20022;-81
2022/07/05 13:58:10;;;;;;;4.10;2.58;;;;;;;;;;13005628;22;20388;-82
2022/07/05 14:03:11;;;;;;;3.95;1.90;;;;;;;;;;13003829;22;19999;-81
2022/07/05 14:08:14;;;;;;;5.78;4.80;;;;;;;;;;13004930;22;20015;-81
2022/07/05 14:13:15;;;;;;;3.05;1.80;;;;;;;;;;13006333;22;19996;-83
2022/07/05 14:18:17;;;;;;;2.85;1.60;;;;;;;;;;13005406;22;20004;-80
2022/07/05 14:23:19;;;;;;;4.60;1.83;;;;;;;;;;13009413;22;20072;-81
2022/07/05 14:28:20;;;;;;;2.97;1.98;;;;;;;;;;13013620;22;20007;-83
2022/07/05 14:33:21;;;;;;;3.33;2.10;;;;;;;;;;13019325;22;20008;-82
2022/07/05 14:38:22;;;;;;;2.78;2.10;;;;;;;;;;12993656;22;20063;-81
2022/07/05 14:43:24;;;;;;;3.58;3.03;;;;;;;;;;12993081;22;20004;-81
2022/07/05 14:48:46;;;;;;;5.70;2.50;;;;;;;;;;12996845;22;20076;-81
2022/07/05 14:54:12;;;;;;;3.75;2.05;;;;;;;;;;12992598;22;20003;-82
2022/07/05 14:59:13;;;;;;;3.63;2.58;;;;;;;;;;12998528;22;20022;-82
2022/07/05 15:04:15;;;;;;;3.13;2.35;;;;;;;;;;12996476;22;20055;-82
2022/07/05 15:09:16;;;;;;;4.32;2.38;;;;;;;;;;12997040;22;20011;-82
2022/07/05 15:14:17;;;;;;;3.72;2.45;;;;;;;;;;13002041;22;20042;-83
2022/07/05 15:19:18;;;;;;;2.75;2.38;;;;;;;;;;12993439;22;20070;-82
2022/07/05 15:24:21;;;;;;;3.78;3.10;;;;;;;;;;12989809;22;20086;-83
2022/07/05 15:29:22;;;;;;;4.43;2.40;;;;;;;;;;12993315;22;20012;-82
2022/07/05 15:34:23;;;;;;;5.68;2.28;;;;;;;;;;12988409;22;20073;-82
2022/07/05 15:39:24;;;;;;;5.32;2.58;;;;;;;;;;12985095;22;20007;-81
2022/07/05 15:44:26;;;;;;;3.72;2.33;;;;;;;;;;12997796;22;20000;-82
2022/07/05 15:49:27;;;;;;;2.53;1.98;;;;;;;;;;12996375;22;20008;-81
2022/07/05 15:54:28;;;;;;;2.40;2.00;;;;;;;;;;12992919;22;20004;-82
2022/07/05 15:59:30;;;;;;;3.35;1.90;;;;;;;;;;12990956;22;20063;-82
2022/07/05 16:04:31;;;;;;;2.78;1.75;;;;;;;;;;12991949;22;20063;-82
2022/07/05 16:09:32;;;;;;;4.25;1.90;;;;;;;;;;12990616;22;20018;-81
2022/07/05 16:14:33;;;;;;;2.92;1.65;;;;;;;;;;12986298;22;20039;-79
2022/07/05 16:19:36;;;;;;;4.18;1.77;;;;;;;;;;12987932;22;20063;-84
2022/07/05 16:24:38;;;;;;;6.22;1.77;;;;;;;;;;12987987;22;20046;-83
2022/07/05 16:36:00;;;;;;;3.25;1.30;;;;;;;;;;13014807;22;20421;-85
2022/07/05 16:41:52;;;;;;;4.70;1.30;;;;;;;;;;12702587;23;20014;-85
2022/07/05 16:47:32;;;;;;;3.13;1.20;;;;;;;;;;12696982;23;20014;-84
2022/07/05 16:52:59;;;;;;;;;;;;;;;;;;12517858;23;20489;-85
2022/07/05 17:26:53;;;;;;;4.70;1.30;;;;;;;;;;12841712;23;20025;-85
2022/07/05 17:32:14;;;;;;;2.13;1.40;;;;;;;;;;12751030;23;20017;-85
2022/07/05 17:37:40;;;;;;;3.40;1.50;;;;;;;;;;12788078;23;20012;-84
2022/07/05 17:43:26;;;;;;;5.35;1.23;;;;;;;;;;12930435;22;20008;-85
2022/07/05 17:54:32;;;;;;;2.40;1.70;;;;;;;;;;13007230;22;20000;-84
2022/07/05 17:59:53;;;;;;;3.17;1.10;;;;;;;;;;12936491;22;20020;-82
2022/07/05 18:04:54;;;;;;;2.47;1.02;;;;;;;;;;12938970;22;19996;-81
2022/07/05 18:09:55;;;;;;;3.30;1.15;;;;;;;;;;12985386;22;20008;-80
2022/07/05 18:14:56;;;;;;;3.20;1.00;;;;;;;;;;13000494;22;20004;-81
2022/07/05 18:19:57;;;;;;;3.15;1.20;;;;;;;;;;12997539;22;20046;-81
2022/07/05 18:24:58;;;;;;;2.50;1.23;;;;;;;;;;12997529;22;20008;-81
2022/07/05 18:29:59;;;;;;;2.90;1.30;;;;;;;;;;12996496;22;20007;-81
2022/07/05 18:35:02;;;;;;;3.10;1.25;;;;;;;;;;12996181;22;20395;-79
2022/07/05 18:40:04;;;;;;;2.63;1.50;;;;;;;;;;12995343;22;20056;-81
2022/07/05 18:45:08;;;;;;;2.08;1.02;;;;;;;;;;12996508;22;20004;-81
2022/07/05 18:50:09;;;;;;;1.42;1.02;;;;;;;;;;12994028;22;20060;-82
2022/07/05 18:55:11;;;;;;;3.17;1.10;;;;;;;;;;12995027;22;20082;-81
2022/07/05 19:00:12;;;;;;;4.20;1.00;;;;;;;;;;12996245;22;20012;-81
2022/07/05 19:05:13;;;;;;;1.70;1.00;;;;;;;;;;12997170;22;20316;-81
2022/07/05 19:15:34;;;;;;;1.90;0.98;;;;;;;;;;13000113;22;20042;-81
2022/07/05 19:20:35;;;;;;;1.85;0.90;;;;;;;;;;12971119;22;20072;-80
2022/07/05 19:25:36;;;;;;;3.05;1.17;;;;;;;;;;12971180;22;20447;-80
